createdAt,value
2022-12-15T00:00:34.315Z,4.10
2022-12-15T00:10:37.913Z,4.60
2022-12-15T00:20:39.829Z,3.95
2022-12-15T00:30:43.095Z,4.57
2022-12-15T00:40:45.432Z,4.97
2022-12-15T00:50:48.695Z,4.15
2022-12-15T01:00:50.631Z,5.07
2022-12-15T01:10:53.865Z,6.80
2022-12-15T01:20:56.556Z,4.80
2022-12-15T01:30:59.949Z,4.75
2022-12-15T01:41:05.099Z,5.40
2022-12-15T01:51:25.214Z,6.15
2022-12-15T02:01:27.244Z,5.90
2022-12-15T02:12:00.812Z,4.28
2022-12-15T02:22:17.955Z,5.78
2022-12-15T02:32:25.473Z,6.32
2022-12-15T02:42:30.468Z,6.20
2022-12-15T02:52:47.500Z,4.53
2022-12-15T03:02:52.812Z,5.57
2022-12-15T03:12:56.236Z,5.45
2022-12-15T03:22:58.156Z,4.43
2022-12-15T03:33:01.450Z,5.32
2022-12-15T03:43:03.371Z,5.05
2022-12-15T03:53:06.674Z,6.07
2022-12-15T04:03:10.668Z,4.13
2022-12-15T04:13:14.069Z,5.43
2022-12-15T04:23:16.004Z,4.55
2022-12-15T04:33:19.839Z,4.97
2022-12-15T04:43:21.788Z,5.43
2022-12-15T04:53:25.043Z,4.75
2022-12-15T05:03:26.963Z,5.93
2022-12-15T05:13:30.647Z,5.70
2022-12-15T05:23:33.095Z,4.38
2022-12-15T05:33:36.683Z,6.45
2022-12-15T05:43:38.591Z,4.82
2022-12-15T05:53:42.783Z,4.68
2022-12-15T06:03:45.255Z,5.72
2022-12-15T06:13:49.199Z,6.13
2022-12-15T06:23:51.652Z,5.22
2022-12-15T06:34:01.421Z,5.78
2022-12-15T06:44:04.946Z,5.78
2022-12-15T06:54:09.160Z,5.72
2022-12-15T07:04:11.195Z,5.85
2022-12-15T07:14:14.743Z,6.00
2022-12-15T07:24:16.647Z,5.88
2022-12-15T07:34:20.164Z,5.50
2022-12-15T07:44:22.059Z,6.30
2022-12-15T07:54:25.384Z,6.10
2022-12-15T08:04:27.343Z,6.28
2022-12-15T08:14:30.637Z,6.32
2022-12-15T08:24:32.552Z,6.93
2022-12-15T08:34:35.881Z,6.10
2022-12-15T08:44:37.777Z,6.72
2022-12-15T08:54:41.044Z,7.10
2022-12-15T09:04:43.058Z,6.40
2022-12-15T09:14:47.158Z,6.88
2022-12-15T09:24:49.083Z,7.57
2022-12-15T09:34:52.860Z,6.10
2022-12-15T09:45:01.552Z,7.47
2022-12-15T09:55:17.940Z,7.50
2022-12-15T10:05:57.357Z,8.95
2022-12-15T10:16:00.657Z,9.65
2022-12-15T10:26:19.813Z,13.17
2022-12-15T10:36:23.212Z,11.27
2022-12-15T10:46:27.564Z,9.68
2022-12-15T10:56:33.951Z,6.93
2022-12-15T11:06:41.424Z,7.07
2022-12-15T11:16:48.931Z,7.72
2022-12-15T11:26:56.382Z,10.00
2022-12-15T11:37:34.493Z,10.45
2022-12-15T11:47:44.310Z,11.85
2022-12-15T11:58:17.418Z,12.45
2022-12-15T12:08:41.583Z,9.32
2022-12-15T12:18:51.150Z,9.27
2022-12-15T12:28:59.990Z,9.63
2022-12-15T12:39:03.915Z,10.40
2022-12-15T12:49:12.705Z,10.32
2022-12-15T12:59:38.457Z,10.35
2022-12-15T13:09:41.682Z,9.90
2022-12-15T13:20:20.670Z,10.65
2022-12-15T13:30:22.583Z,9.52
2022-12-15T13:40:51.390Z,7.78
2022-12-15T13:51:01.522Z,7.20
2022-12-15T14:01:20.035Z,8.30
2022-12-15T14:11:51.382Z,7.68
2022-12-15T14:21:52.462Z,9.30
2022-12-15T14:31:56.179Z,7.82
2022-12-15T14:41:59.823Z,6.57
2022-12-15T14:52:05.876Z,7.28
2022-12-15T15:02:17.434Z,7.00
2022-12-15T15:12:21.453Z,6.22
2022-12-15T15:22:37.274Z,5.30
2022-12-15T15:32:49.847Z,4.60
2022-12-15T15:42:53.337Z,6.07
2022-12-15T15:52:55.720Z,4.60
2022-12-15T16:02:59.133Z,5.15
2022-12-15T16:13:01.385Z,5.05
2022-12-15T16:23:11.150Z,5.32
2022-12-15T16:33:13.095Z,3.90
2022-12-15T16:43:20.315Z,6.38
2022-12-15T16:53:25.597Z,6.10
2022-12-15T17:03:29.129Z,6.70
2022-12-15T17:13:40.635Z,10.82
2022-12-15T17:23:51.340Z,12.27
2022-12-15T17:33:53.364Z,15.70
2022-12-15T17:44:24.097Z,15.23
2022-12-15T17:54:19.964Z,16.25
2022-12-15T18:04:23.442Z,12.60
2022-12-15T18:14:27.386Z,11.52
2022-12-15T18:24:30.740Z,10.30
2022-12-15T18:34:32.665Z,10.85
2022-12-15T18:44:35.955Z,12.35
2022-12-15T18:54:37.856Z,11.95
2022-12-15T19:04:41.340Z,18.55
2022-12-15T19:14:43.440Z,13.20
2022-12-15T19:24:46.789Z,13.65
2022-12-15T19:34:49.294Z,14.30
2022-12-15T19:44:52.656Z,12.88
2022-12-15T19:54:54.646Z,11.65
2022-12-15T20:04:57.923Z,11.15
2022-12-15T20:14:59.884Z,10.77
2022-12-15T20:25:03.336Z,10.35
2022-12-15T20:35:05.858Z,11.20
2022-12-15T20:45:12.714Z,11.43
2022-12-15T20:55:14.983Z,8.57
2022-12-15T21:05:21.158Z,8.45
2022-12-15T21:15:23.762Z,9.05
2022-12-15T21:25:27.104Z,9.88
2022-12-15T21:35:31.872Z,13.32
2022-12-15T21:45:35.380Z,14.25
2022-12-15T21:55:37.285Z,10.50
2022-12-15T22:05:40.603Z,9.63
2022-12-15T22:15:42.640Z,10.45
2022-12-15T22:25:47.357Z,12.75
2022-12-15T22:35:50.525Z,10.98
2022-12-15T22:45:55.378Z,11.27
2022-12-15T22:55:58.034Z,10.88
2022-12-15T23:06:03.098Z,10.43
2022-12-15T23:16:06.002Z,9.00
2022-12-15T23:26:09.443Z,9.13
2022-12-15T23:36:12.074Z,8.65
2022-12-15T23:46:15.458Z,7.38
2022-12-15T23:56:19.111Z,7.35
